Quail, Texas
Current Conditions -  °F | °C
As of 9:53 PM on Sunday 25 Jan 2015 (Local Time) from KCDS Reporting Station
Clear Clear  
Wind Chill:   Ceiling: Unl
Heat Index:   Visibility: 10mi
Dew Point:   Wind: 8mph
Humidity: 63%   Direction: 290°WNW
Pressure: 30.21"   Gusts: NA
Location:  34.91°N, 100.4°W
Report Text: KCDS 260353Z AUTO 29007KT 10SM CLR 08/01 A3021 RMK AO2 SLP229 T00780011 $
Loading
Personal Weather Stations






























Interactive Weather Map New forecast layout! Learn more

10-Day Weather Forecast

Advertisements
Track Severe Weather on mobile